createdAt,value
2019-01-10T00:00:18.231Z,7.63
2019-01-10T00:02:47.247Z,6.97
2019-01-10T00:05:16.330Z,5.23
2019-01-10T00:07:45.373Z,3.97
2019-01-10T00:10:14.546Z,7.07
2019-01-10T00:12:43.652Z,5.60
2019-01-10T00:15:14.688Z,8.60
2019-01-10T00:17:43.773Z,6.03
2019-01-10T00:20:13.079Z,5.17
2019-01-10T00:22:42.169Z,5.03
2019-01-10T00:25:11.626Z,5.80
2019-01-10T00:27:40.784Z,6.43
2019-01-10T00:30:15.327Z,7.80
2019-01-10T00:32:44.379Z,10.50
2019-01-10T00:35:13.535Z,5.60
2019-01-10T00:37:42.605Z,4.13
2019-01-10T00:40:13.265Z,6.43
2019-01-10T00:42:49.224Z,5.97
2019-01-10T00:45:15.402Z,7.00
2019-01-10T00:47:45.107Z,6.47
2019-01-10T00:50:16.513Z,4.67
2019-01-10T00:52:45.584Z,6.33
2019-01-10T00:55:14.972Z,7.07
2019-01-10T00:57:44.051Z,4.13
2019-01-10T01:00:19.289Z,7.60
2019-01-10T01:02:48.386Z,8.83
2019-01-10T01:05:17.487Z,7.23
2019-01-10T01:07:46.601Z,5.07
2019-01-10T01:10:18.124Z,8.40
2019-01-10T01:12:47.238Z,5.50
2019-01-10T01:15:17.638Z,5.20
2019-01-10T01:17:46.736Z,9.37
2019-01-10T01:20:17.444Z,6.10
2019-01-10T01:22:46.528Z,7.43
2019-01-10T01:25:15.649Z,5.37
2019-01-10T01:27:44.885Z,6.97
2019-01-10T01:30:21.676Z,6.83
2019-01-10T01:32:51.004Z,5.27
2019-01-10T01:35:21.635Z,4.50
2019-01-10T01:37:50.810Z,4.87
2019-01-10T01:40:20.423Z,6.93
2019-01-10T01:42:49.531Z,8.37
2019-01-10T01:45:19.353Z,7.17
2019-01-10T01:47:48.503Z,10.10
2019-01-10T01:50:22.380Z,5.37
2019-01-10T01:52:53.560Z,4.73
2019-01-10T01:55:22.398Z,4.40
2019-01-10T01:57:51.520Z,9.07
2019-01-10T02:00:24.546Z,8.13
2019-01-10T02:02:53.618Z,6.63
2019-01-10T02:05:22.720Z,6.40
2019-01-10T02:07:51.839Z,8.77
2019-01-10T02:10:23.330Z,6.90
2019-01-10T02:12:52.427Z,5.80
2019-01-10T02:15:21.520Z,6.87
2019-01-10T02:17:50.614Z,3.60
2019-01-10T02:20:19.709Z,5.10
2019-01-10T02:22:48.808Z,11.90
2019-01-10T02:25:17.891Z,4.97
2019-01-10T02:27:46.988Z,9.37
2019-01-10T02:30:23.897Z,9.50
2019-01-10T02:32:53.017Z,9.80
2019-01-10T02:35:22.117Z,6.87
2019-01-10T02:37:51.158Z,4.77
2019-01-10T02:40:20.213Z,7.23
2019-01-10T02:42:49.306Z,4.10
2019-01-10T02:45:18.404Z,5.97
2019-01-10T02:47:47.489Z,9.97
2019-01-10T02:50:21.397Z,10.33
2019-01-10T02:52:50.531Z,5.43
2019-01-10T02:55:19.818Z,4.60
2019-01-10T02:57:48.913Z,8.97
2019-01-10T03:00:20.059Z,4.43
2019-01-10T03:02:49.124Z,6.93
2019-01-10T03:05:18.157Z,6.03
2019-01-10T03:07:47.236Z,6.83
2019-01-10T03:10:17.838Z,6.20
2019-01-10T03:12:46.910Z,5.50
2019-01-10T03:15:16.079Z,5.00
2019-01-10T03:17:45.173Z,12.50
2019-01-10T03:20:16.271Z,6.20
2019-01-10T03:22:45.364Z,4.43
2019-01-10T03:25:14.454Z,6.90
2019-01-10T03:27:43.524Z,8.87
2019-01-10T03:30:14.150Z,8.87
2019-01-10T03:32:43.433Z,11.40
2019-01-10T03:35:12.484Z,3.77
2019-01-10T03:37:41.514Z,10.47
2019-01-10T03:40:12.931Z,13.73
2019-01-10T03:42:42.007Z,9.43
2019-01-10T03:45:12.983Z,8.27
2019-01-10T03:47:42.051Z,4.80
2019-01-10T03:50:12.120Z,6.30
2019-01-10T03:52:41.209Z,5.40
2019-01-10T03:55:10.286Z,5.67
2019-01-10T10:22:59.169Z,5.63
2019-01-10T10:25:28.576Z,5.87
2019-01-10T10:27:57.796Z,7.90
2019-01-10T10:30:26.873Z,7.00
2019-01-10T10:32:55.946Z,9.17
2019-01-10T10:35:25.073Z,10.30
2019-01-10T10:37:54.195Z,5.83
2019-01-10T10:40:23.356Z,6.50
2019-01-10T10:42:53.142Z,9.93
2019-01-10T10:45:22.749Z,10.00
2019-01-10T10:47:51.957Z,7.87
2019-01-10T10:50:26.304Z,7.10
2019-01-10T10:52:55.446Z,7.57
2019-01-10T10:55:24.570Z,7.43
2019-01-10T10:57:53.711Z,9.00
2019-01-10T11:00:25.234Z,8.97
2019-01-10T11:02:54.476Z,8.00
2019-01-10T11:05:23.608Z,5.33
2019-01-10T11:07:52.787Z,7.57
2019-01-10T11:10:21.874Z,8.03
2019-01-10T11:12:50.967Z,7.57
2019-01-10T11:15:20.031Z,11.80
2019-01-10T11:17:49.652Z,7.67
2019-01-10T11:20:20.609Z,11.90
2019-01-10T11:22:49.911Z,9.57
2019-01-10T11:25:21.208Z,13.97
2019-01-10T11:27:50.330Z,7.70
2019-01-10T11:30:19.828Z,7.53
2019-01-10T11:32:49.019Z,9.37
2019-01-10T11:35:18.170Z,7.63
2019-01-10T11:37:47.286Z,10.60
2019-01-10T11:40:18.334Z,7.40
2019-01-10T11:42:47.469Z,7.43
2019-01-10T11:45:17.999Z,11.17
2019-01-10T11:47:47.060Z,8.23
2019-01-10T11:50:16.171Z,7.33
2019-01-10T11:52:45.241Z,8.93
2019-01-10T11:55:14.413Z,10.80
2019-01-10T11:57:43.709Z,7.63
2019-01-10T12:00:21.826Z,7.10
2019-01-10T12:02:51.009Z,12.17
2019-01-10T12:05:20.192Z,10.97
2019-01-10T12:07:49.467Z,12.47
2019-01-10T12:10:20.009Z,12.33
2019-01-10T12:12:49.464Z,7.93
2019-01-10T12:15:18.578Z,9.97
2019-01-10T12:17:47.752Z,8.07
2019-01-10T12:20:17.203Z,9.87
2019-01-10T12:22:46.328Z,9.47
2019-01-10T12:25:16.045Z,12.90
2019-01-10T12:27:45.209Z,14.17
2019-01-10T12:30:20.097Z,10.53
2019-01-10T12:32:49.214Z,11.20
2019-01-10T12:35:18.308Z,14.17
2019-01-10T12:37:47.361Z,7.03
2019-01-10T12:40:16.631Z,9.80
2019-01-10T12:42:45.730Z,11.97
2019-01-10T12:45:15.914Z,14.07
2019-01-10T12:47:44.984Z,14.40
2019-01-10T12:50:19.365Z,11.53
2019-01-10T12:52:48.422Z,12.07
2019-01-10T12:55:17.588Z,10.80
2019-01-10T12:57:46.718Z,12.03
2019-01-10T13:00:17.522Z,16.70
2019-01-10T13:02:46.702Z,10.27
2019-01-10T13:05:15.899Z,10.30
2019-01-10T13:07:45.040Z,13.40
2019-01-10T13:10:16.214Z,13.23
2019-01-10T13:12:45.375Z,11.50
2019-01-10T13:15:17.108Z,11.17
2019-01-10T13:17:46.226Z,11.47
2019-01-10T13:20:15.382Z,10.77
2019-01-10T13:22:44.508Z,12.80
2019-01-10T13:25:15.598Z,10.93
2019-01-10T13:27:44.762Z,13.03
2019-01-10T13:30:16.754Z,9.43
2019-01-10T13:32:46.031Z,12.70
2019-01-10T13:35:15.224Z,11.33
2019-01-10T13:37:44.326Z,11.97
2019-01-10T13:40:15.691Z,16.27
2019-01-10T13:42:44.599Z,7.77
2019-01-10T13:45:14.031Z,8.13
2019-01-10T13:47:44.542Z,13.77
2019-01-10T13:50:18.641Z,7.23
2019-01-10T13:52:47.776Z,12.23
2019-01-10T13:55:17.335Z,10.47
2019-01-10T13:57:46.481Z,9.30
2019-01-10T14:00:18.461Z,8.77
2019-01-10T14:02:47.545Z,11.67
2019-01-10T14:05:16.813Z,10.50
2019-01-10T14:07:46.004Z,9.70
2019-01-10T14:10:15.302Z,8.97
2019-01-10T14:12:44.396Z,6.83
2019-01-10T14:15:16.235Z,8.83
2019-01-10T14:17:45.393Z,11.30
2019-01-10T14:20:15.861Z,10.30
2019-01-10T14:22:45.011Z,11.00
2019-01-10T14:25:14.149Z,11.40
2019-01-10T14:27:43.319Z,15.37
2019-01-10T14:30:21.440Z,10.87
2019-01-10T14:32:50.530Z,7.53
2019-01-10T14:35:19.688Z,16.17
2019-01-10T14:37:48.832Z,9.30
2019-01-10T14:40:18.195Z,10.00
2019-01-10T14:42:47.279Z,10.53
2019-01-10T14:45:16.484Z,11.37
2019-01-10T14:47:45.676Z,7.30
2019-01-10T14:50:14.764Z,7.63
2019-01-10T14:52:43.923Z,11.57
2019-01-10T14:55:13.138Z,11.53
2019-01-10T14:57:42.340Z,11.67
2019-01-10T15:00:14.715Z,11.93
2019-01-10T15:02:43.820Z,9.87
2019-01-10T15:05:13.007Z,10.50
2019-01-10T15:07:42.177Z,15.87
2019-01-10T15:10:11.599Z,9.27
2019-01-10T15:12:41.954Z,7.63
2019-01-10T15:15:13.585Z,8.73
2019-01-10T15:17:42.693Z,11.80
2019-01-10T15:20:18.403Z,11.63
2019-01-10T15:22:47.607Z,9.17
2019-01-10T15:25:16.710Z,9.20
2019-01-10T15:27:46.239Z,10.03
2019-01-10T15:30:17.992Z,12.33
2019-01-10T15:32:47.120Z,8.13
2019-01-10T15:35:16.306Z,11.70
2019-01-10T15:37:45.412Z,8.30
2019-01-10T15:40:22.921Z,8.70
2019-01-10T15:42:53.057Z,9.10
2019-01-10T15:45:22.293Z,7.53
2019-01-10T15:47:51.410Z,8.70
2019-01-10T15:50:20.539Z,11.23
2019-01-10T15:52:49.651Z,14.10
2019-01-10T15:55:18.808Z,13.03
2019-01-10T15:57:47.937Z,13.40
2019-01-10T16:00:19.084Z,13.17
2019-01-10T16:02:48.650Z,11.63
2019-01-10T16:05:17.746Z,11.37
2019-01-10T16:07:46.851Z,9.23
2019-01-10T16:10:17.249Z,10.57
2019-01-10T16:12:46.441Z,14.50
2019-01-10T16:15:20.313Z,9.13
2019-01-10T16:17:49.476Z,8.87
2019-01-10T16:20:18.577Z,13.63
2019-01-10T16:22:47.718Z,9.23
2019-01-10T16:25:16.948Z,11.67
2019-01-10T16:27:46.066Z,10.93
2019-01-10T16:30:17.635Z,11.53
2019-01-10T16:32:46.716Z,7.57
2019-01-10T16:35:15.840Z,11.80
2019-01-10T16:37:44.985Z,11.53
2019-01-10T16:40:14.288Z,9.53
2019-01-10T18:01:58.446Z,17.97
2019-01-10T18:04:36.264Z,25.73
2019-01-10T18:07:06.297Z,16.13
2019-01-10T18:09:43.512Z,18.73
2019-01-10T18:12:16.235Z,13.17
2019-01-10T18:14:45.408Z,18.03
2019-01-10T18:17:14.742Z,16.87
2019-01-10T18:19:43.852Z,17.33
2019-01-10T18:22:13.148Z,13.73
2019-01-10T18:24:42.429Z,18.57
2019-01-10T18:27:11.889Z,16.20
2019-01-10T18:29:41.023Z,16.60
2019-01-10T18:32:12.610Z,12.07
2019-01-10T18:34:41.859Z,17.40
2019-01-10T18:37:11.049Z,12.13
2019-01-10T18:39:40.299Z,17.27
2019-01-10T18:42:09.535Z,17.10
2019-01-10T18:44:38.680Z,16.83
2019-01-10T18:47:07.771Z,14.67
2019-01-10T18:49:36.985Z,12.80
2019-01-10T18:52:06.218Z,14.37
2019-01-10T18:54:35.386Z,17.60
2019-01-10T18:57:05.179Z,14.13
2019-01-10T18:59:35.505Z,23.40
2019-01-10T19:02:04.753Z,32.67
2019-01-10T19:04:34.223Z,15.23
2019-01-10T19:07:03.502Z,17.07
2019-01-10T19:09:32.722Z,16.10
2019-01-10T19:12:01.902Z,16.37
2019-01-10T19:14:31.203Z,16.90
2019-01-10T19:17:00.396Z,20.20
2019-01-10T19:19:29.552Z,16.73
2019-01-10T19:21:58.790Z,11.87
2019-01-10T19:24:27.917Z,13.63
2019-01-10T19:26:57.037Z,9.83
2019-01-10T19:29:26.193Z,13.30
2019-01-10T19:31:55.418Z,14.67
2019-01-10T19:34:24.563Z,10.07
2019-01-10T19:36:53.785Z,18.13
2019-01-10T19:39:22.955Z,9.70
2019-01-10T19:41:52.186Z,17.30
2019-01-10T19:44:21.458Z,15.07
2019-01-10T19:46:51.529Z,14.40
2019-01-10T19:49:20.734Z,14.47
2019-01-10T19:51:49.916Z,12.00
2019-01-10T19:54:18.988Z,17.60
2019-01-10T19:56:48.208Z,16.63
2019-01-10T19:59:17.383Z,9.87
2019-01-10T20:01:46.636Z,39.80
2019-01-10T20:04:15.785Z,39.30
2019-01-10T20:06:44.995Z,20.23
2019-01-10T20:09:14.232Z,12.67
2019-01-10T20:11:43.402Z,11.80
2019-01-10T20:14:12.556Z,17.07
2019-01-10T20:16:41.817Z,19.20
2019-01-10T20:19:12.303Z,16.40
2019-01-10T20:21:41.513Z,17.43
2019-01-10T20:24:10.708Z,13.47
2019-01-10T20:26:39.934Z,15.80
2019-01-10T20:29:09.186Z,16.33
2019-01-10T20:31:38.434Z,13.73
2019-01-10T20:34:07.607Z,14.70
2019-01-10T20:36:36.883Z,11.20
2019-01-10T20:39:08.406Z,12.63
2019-01-10T20:41:37.729Z,12.97
2019-01-10T20:44:06.979Z,11.90
2019-01-10T20:46:36.107Z,16.07
2019-01-10T20:49:05.334Z,19.03
2019-01-10T20:51:34.570Z,10.13
2019-01-10T20:54:03.848Z,12.30
2019-01-10T20:56:33.200Z,11.93
2019-01-10T20:59:03.020Z,17.10
2019-01-10T21:01:32.301Z,14.33
2019-01-10T21:04:01.645Z,14.97
2019-01-10T21:06:31.000Z,16.07
2019-01-10T21:09:00.150Z,17.90
2019-01-10T21:11:29.289Z,12.30
2019-01-10T21:13:58.536Z,11.27
2019-01-10T21:16:27.760Z,14.30
2019-01-10T21:18:56.917Z,17.03
2019-01-10T21:21:26.084Z,11.90
2019-01-10T21:23:55.213Z,12.37
2019-01-10T21:26:24.392Z,13.87
2019-01-10T21:28:53.490Z,12.37
2019-01-10T21:31:22.545Z,17.53
2019-01-10T21:33:51.656Z,16.33
2019-01-10T21:36:20.906Z,16.07
2019-01-10T21:38:50.007Z,12.73
2019-01-10T21:41:19.170Z,15.73
2019-01-10T21:43:48.333Z,12.70
2019-01-10T21:46:17.503Z,17.37
2019-01-10T21:48:46.671Z,15.50
2019-01-10T21:51:15.792Z,16.03
2019-01-10T21:53:44.922Z,11.47
2019-01-10T21:56:14.005Z,13.27
2019-01-10T21:58:43.138Z,12.33
2019-01-10T22:01:12.238Z,14.80
2019-01-10T22:03:41.382Z,17.03
2019-01-10T22:06:10.449Z,13.67
2019-01-10T22:08:39.586Z,12.67
2019-01-10T22:11:08.788Z,13.47
2019-01-10T22:13:37.910Z,21.37
2019-01-10T22:16:07.052Z,14.83
2019-01-10T22:18:41.487Z,15.50
2019-01-10T22:21:07.301Z,14.47
2019-01-10T22:23:36.388Z,18.70
2019-01-10T22:26:05.548Z,17.73
2019-01-10T22:28:34.676Z,14.53
2019-01-10T22:31:03.819Z,13.30
2019-01-10T22:33:32.879Z,16.90
2019-01-10T22:36:02.285Z,18.07
2019-01-10T22:38:31.469Z,16.50
2019-01-10T22:41:00.675Z,18.90
2019-01-10T22:43:29.930Z,18.40
2019-01-10T22:45:59.081Z,17.07
2019-01-10T22:48:28.163Z,14.50
2019-01-10T22:50:57.323Z,19.53
2019-01-10T22:53:26.570Z,20.57
2019-01-10T22:55:55.676Z,17.07
2019-01-10T22:58:24.726Z,21.47
2019-01-10T23:01:34.830Z,14.17
2019-01-10T23:04:04.041Z,16.97
2019-01-10T23:06:33.329Z,16.67
2019-01-10T23:09:02.642Z,14.80
2019-01-10T23:11:32.943Z,17.50
2019-01-10T23:14:03.123Z,18.17
2019-01-10T23:16:33.361Z,23.13
2019-01-10T23:19:02.441Z,20.20
2019-01-10T23:21:35.108Z,18.10
2019-01-10T23:24:08.767Z,16.90
2019-01-10T23:26:37.946Z,16.57
2019-01-10T23:29:07.311Z,21.90
2019-01-10T23:31:36.790Z,22.80
2019-01-10T23:34:10.663Z,27.67
2019-01-10T23:36:39.894Z,23.83
2019-01-10T23:39:16.562Z,27.40
2019-01-10T23:41:45.780Z,26.27
2019-01-10T23:44:14.925Z,25.47
2019-01-10T23:46:44.047Z,22.33
2019-01-10T23:49:13.140Z,22.30
2019-01-10T23:51:42.272Z,24.90
2019-01-10T23:54:11.300Z,23.27
2019-01-10T23:56:41.086Z,23.70
2019-01-10T23:59:10.154Z,16.87
